sensor_id;sensor_type;location;lat;lon;timestamp;temperature;humidity
51863;DHT22;37900;52.996;6.278;2023-03-01T00:01:06;15.20;75.40
51863;DHT22;37900;52.996;6.278;2023-03-01T00:03:33;15.30;75.40
51863;DHT22;37900;52.996;6.278;2023-03-01T00:05:59;15.30;75.40
51863;DHT22;37900;52.996;6.278;2023-03-01T00:08:26;15.30;75.40
51863;DHT22;37900;52.996;6.278;2023-03-01T00:11:09;15.30;75.40
51863;DHT22;37900;52.996;6.278;2023-03-01T00:13:36;15.30;75.40
51863;DHT22;37900;52.996;6.278;2023-03-01T00:16:07;15.30;75.50
51863;DHT22;37900;52.996;6.278;2023-03-01T00:18:34;15.30;75.40
51863;DHT22;37900;52.996;6.278;2023-03-01T00:21:00;15.20;75.40
51863;DHT22;37900;52.996;6.278;2023-03-01T00:23:26;15.20;75.30
51863;DHT22;37900;52.996;6.278;2023-03-01T00:25:52;15.20;75.30
51863;DHT22;37900;52.996;6.278;2023-03-01T00:28:19;15.20;75.20
51863;DHT22;37900;52.996;6.278;2023-03-01T00:30:45;15.20;75.20
51863;DHT22;37900;52.996;6.278;2023-03-01T00:33:11;15.20;75.10
51863;DHT22;37900;52.996;6.278;2023-03-01T00:35:36;15.20;75.70
51863;DHT22;37900;52.996;6.278;2023-03-01T00:38:03;15.20;75.00
51863;DHT22;37900;52.996;6.278;2023-03-01T00:40:31;15.10;74.90
51863;DHT22;37900;52.996;6.278;2023-03-01T00:43:00;15.10;74.80
51863;DHT22;37900;52.996;6.278;2023-03-01T00:45:26;15.10;74.70
51863;DHT22;37900;52.996;6.278;2023-03-01T00:47:53;15.10;74.70
51863;DHT22;37900;52.996;6.278;2023-03-01T00:50:19;15.20;74.60
51863;DHT22;37900;52.996;6.278;2023-03-01T00:52:45;15.20;74.60
51863;DHT22;37900;52.996;6.278;2023-03-01T00:55:11;15.20;74.60
51863;DHT22;37900;52.996;6.278;2023-03-01T00:57:37;15.20;74.60
51863;DHT22;37900;52.996;6.278;2023-03-01T01:00:07;15.20;74.70
51863;DHT22;37900;52.996;6.278;2023-03-01T01:02:34;15.20;74.70
51863;DHT22;37900;52.996;6.278;2023-03-01T01:05:00;15.20;74.70
51863;DHT22;37900;52.996;6.278;2023-03-01T01:07:26;15.20;74.70
51863;DHT22;37900;52.996;6.278;2023-03-01T01:09:55;15.10;74.60
51863;DHT22;37900;52.996;6.278;2023-03-01T01:12:21;15.10;74.60
51863;DHT22;37900;52.996;6.278;2023-03-01T01:14:46;15.10;74.50
51863;DHT22;37900;52.996;6.278;2023-03-01T01:17:12;15.10;74.50
51863;DHT22;37900;52.996;6.278;2023-03-01T01:19:38;15.10;74.40
51863;DHT22;37900;52.996;6.278;2023-03-01T01:22:03;15.10;74.40
51863;DHT22;37900;52.996;6.278;2023-03-01T01:24:29;15.10;74.30
51863;DHT22;37900;52.996;6.278;2023-03-01T01:26:55;15.10;74.20
51863;DHT22;37900;52.996;6.278;2023-03-01T01:29:21;15.00;74.10
51863;DHT22;37900;52.996;6.278;2023-03-01T01:31:47;15.00;74.00
51863;DHT22;37900;52.996;6.278;2023-03-01T01:34:17;15.10;73.90
51863;DHT22;37900;52.996;6.278;2023-03-01T01:36:44;15.10;73.90
51863;DHT22;37900;52.996;6.278;2023-03-01T01:39:10;15.10;73.90
51863;DHT22;37900;52.996;6.278;2023-03-01T01:41:41;15.10;74.10
51863;DHT22;37900;52.996;6.278;2023-03-01T01:44:22;15.10;74.00
51863;DHT22;37900;52.996;6.278;2023-03-01T01:47:05;15.10;74.10
51863;DHT22;37900;52.996;6.278;2023-03-01T01:50:01;15.10;74.10
51863;DHT22;37900;52.996;6.278;2023-03-01T01:52:31;15.10;74.00
51863;DHT22;37900;52.996;6.278;2023-03-01T01:55:10;15.10;74.10
51863;DHT22;37900;52.996;6.278;2023-03-01T01:57:38;15.00;74.00
51863;DHT22;37900;52.996;6.278;2023-03-01T02:00:14;15.00;73.80
51863;DHT22;37900;52.996;6.278;2023-03-01T02:02:42;15.00;73.90
51863;DHT22;37900;52.996;6.278;2023-03-01T02:05:13;15.00;73.80
51863;DHT22;37900;52.996;6.278;2023-03-01T02:07:41;15.00;73.30
51863;DHT22;37900;52.996;6.278;2023-03-01T02:10:08;15.00;73.60
51863;DHT22;37900;52.996;6.278;2023-03-01T02:12:34;15.00;73.50
51863;DHT22;37900;52.996;6.278;2023-03-01T02:15:01;15.00;73.40
51863;DHT22;37900;52.996;6.278;2023-03-01T02:17:27;15.00;73.30
51863;DHT22;37900;52.996;6.278;2023-03-01T02:20:16;15.00;73.30
51863;DHT22;37900;52.996;6.278;2023-03-01T02:22:45;15.10;73.40
51863;DHT22;37900;52.996;6.278;2023-03-01T02:25:32;15.10;73.50
51863;DHT22;37900;52.996;6.278;2023-03-01T02:28:19;15.00;73.40
51863;DHT22;37900;52.996;6.278;2023-03-01T02:30:48;15.10;73.50
51863;DHT22;37900;52.996;6.278;2023-03-01T02:33:34;15.00;73.50
51863;DHT22;37900;52.996;6.278;2023-03-01T02:36:08;15.00;73.50
51863;DHT22;37900;52.996;6.278;2023-03-01T02:38:35;15.00;73.50
51863;DHT22;37900;52.996;6.278;2023-03-01T02:41:02;15.00;73.40
51863;DHT22;37900;52.996;6.278;2023-03-01T02:43:31;15.00;73.40
51863;DHT22;37900;52.996;6.278;2023-03-01T02:46:08;14.90;73.30
51863;DHT22;37900;52.996;6.278;2023-03-01T02:48:49;14.90;73.20
51863;DHT22;37900;52.996;6.278;2023-03-01T02:56:15;15.00;72.90
51863;DHT22;37900;52.996;6.278;2023-03-01T02:58:43;15.00;72.90
51863;DHT22;37900;52.996;6.278;2023-03-01T03:01:13;15.00;72.90
51863;DHT22;37900;52.996;6.278;2023-03-01T03:03:41;15.00;72.90
51863;DHT22;37900;52.996;6.278;2023-03-01T03:06:09;15.00;73.00
51863;DHT22;37900;52.996;6.278;2023-03-01T03:08:34;15.00;73.00
51863;DHT22;37900;52.996;6.278;2023-03-01T03:11:00;15.00;73.00
51863;DHT22;37900;52.996;6.278;2023-03-01T03:13:26;15.00;73.00
51863;DHT22;37900;52.996;6.278;2023-03-01T03:15:55;15.00;73.00
51863;DHT22;37900;52.996;6.278;2023-03-01T03:18:22;14.90;73.00
51863;DHT22;37900;52.996;6.278;2023-03-01T03:20:48;14.90;72.90
51863;DHT22;37900;52.996;6.278;2023-03-01T03:23:19;14.90;72.90
51863;DHT22;37900;52.996;6.278;2023-03-01T03:25:48;15.00;72.90
51863;DHT22;37900;52.996;6.278;2023-03-01T03:28:14;14.90;72.80
51863;DHT22;37900;52.996;6.278;2023-03-01T03:30:42;14.90;72.60
51863;DHT22;37900;52.996;6.278;2023-03-01T03:33:09;14.90;72.60
51863;DHT22;37900;52.996;6.278;2023-03-01T03:35:41;14.90;72.50
51863;DHT22;37900;52.996;6.278;2023-03-01T03:38:09;14.90;72.40
51863;DHT22;37900;52.996;6.278;2023-03-01T03:40:49;14.90;72.40
51863;DHT22;37900;52.996;6.278;2023-03-01T03:43:18;14.90;72.40
51863;DHT22;37900;52.996;6.278;2023-03-01T03:45:45;14.90;72.50
51863;DHT22;37900;52.996;6.278;2023-03-01T03:48:11;15.00;72.60
51863;DHT22;37900;52.996;6.278;2023-03-01T03:50:38;14.90;72.60
51863;DHT22;37900;52.996;6.278;2023-03-01T03:53:07;14.90;72.60
51863;DHT22;37900;52.996;6.278;2023-03-01T03:55:33;14.90;72.60
51863;DHT22;37900;52.996;6.278;2023-03-01T03:58:00;14.90;72.60
51863;DHT22;37900;52.996;6.278;2023-03-01T04:00:33;14.90;72.60
51863;DHT22;37900;52.996;6.278;2023-03-01T04:02:59;14.80;72.50
51863;DHT22;37900;52.996;6.278;2023-03-01T04:05:26;14.80;72.00
51863;DHT22;37900;52.996;6.278;2023-03-01T04:07:52;14.80;72.30
51863;DHT22;37900;52.996;6.278;2023-03-01T04:10:27;14.80;72.20
51863;DHT22;37900;52.996;6.278;2023-03-01T04:12:54;14.80;72.10
51863;DHT22;37900;52.996;6.278;2023-03-01T04:15:22;14.90;72.10
51863;DHT22;37900;52.996;6.278;2023-03-01T04:17:50;14.80;71.90
51863;DHT22;37900;52.996;6.278;2023-03-01T04:20:20;14.90;71.90
51863;DHT22;37900;52.996;6.278;2023-03-01T04:25:56;14.90;71.90
51863;DHT22;37900;52.996;6.278;2023-03-01T04:28:33;14.90;72.00
51863;DHT22;37900;52.996;6.278;2023-03-01T04:31:03;14.90;72.00
51863;DHT22;37900;52.996;6.278;2023-03-01T04:33:39;14.90;72.10
51863;DHT22;37900;52.996;6.278;2023-03-01T04:36:05;14.90;72.20
51863;DHT22;37900;52.996;6.278;2023-03-01T04:38:34;14.80;72.00
51863;DHT22;37900;52.996;6.278;2023-03-01T04:41:01;14.80;72.20
51863;DHT22;37900;52.996;6.278;2023-03-01T04:43:28;14.80;72.10
51863;DHT22;37900;52.996;6.278;2023-03-01T04:45:54;14.70;72.00
51863;DHT22;37900;52.996;6.278;2023-03-01T04:48:25;14.80;71.90
51863;DHT22;37900;52.996;6.278;2023-03-01T04:50:50;14.80;71.70
51863;DHT22;37900;52.996;6.278;2023-03-01T04:53:16;14.80;71.70
51863;DHT22;37900;52.996;6.278;2023-03-01T04:55:43;14.80;71.60
51863;DHT22;37900;52.996;6.278;2023-03-01T04:58:09;14.80;71.10
51863;DHT22;37900;52.996;6.278;2023-03-01T05:00:35;14.80;71.50
51863;DHT22;37900;52.996;6.278;2023-03-01T05:03:01;14.80;71.40
51863;DHT22;37900;52.996;6.278;2023-03-01T05:05:32;14.90;71.50
51863;DHT22;37900;52.996;6.278;2023-03-01T05:08:01;14.80;71.60
51863;DHT22;37900;52.996;6.278;2023-03-01T05:10:28;14.80;71.60
51863;DHT22;37900;52.996;6.278;2023-03-01T05:12:59;14.80;71.70
51863;DHT22;37900;52.996;6.278;2023-03-01T05:15:29;14.80;71.70
51863;DHT22;37900;52.996;6.278;2023-03-01T05:17:58;14.80;71.70
51863;DHT22;37900;52.996;6.278;2023-03-01T05:20:26;14.80;71.80
51863;DHT22;37900;52.996;6.278;2023-03-01T05:22:59;14.80;71.70
51863;DHT22;37900;52.996;6.278;2023-03-01T05:25:26;14.70;71.60
51863;DHT22;37900;52.996;6.278;2023-03-01T05:27:52;14.70;71.40
51863;DHT22;37900;52.996;6.278;2023-03-01T05:30:18;14.70;71.30
51863;DHT22;37900;52.996;6.278;2023-03-01T05:32:46;14.70;71.20
51863;DHT22;37900;52.996;6.278;2023-03-01T05:35:14;14.80;71.20
51863;DHT22;37900;52.996;6.278;2023-03-01T05:37:45;14.70;71.10
51863;DHT22;37900;52.996;6.278;2023-03-01T05:40:14;14.80;71.00
51863;DHT22;37900;52.996;6.278;2023-03-01T05:42:44;14.80;71.00
51863;DHT22;37900;52.996;6.278;2023-03-01T05:45:10;14.80;71.00
51863;DHT22;37900;52.996;6.278;2023-03-01T05:47:38;14.80;71.10
51863;DHT22;37900;52.996;6.278;2023-03-01T05:50:05;14.80;70.90
51863;DHT22;37900;52.996;6.278;2023-03-01T05:52:32;14.80;71.20
51863;DHT22;37900;52.996;6.278;2023-03-01T05:54:58;14.80;71.30
51863;DHT22;37900;52.996;6.278;2023-03-01T05:57:24;14.70;71.30
51863;DHT22;37900;52.996;6.278;2023-03-01T05:59:49;14.80;71.40
51863;DHT22;37900;52.996;6.278;2023-03-01T06:02:15;14.70;71.30
51863;DHT22;37900;52.996;6.278;2023-03-01T06:04:41;14.70;71.20
51863;DHT22;37900;52.996;6.278;2023-03-01T06:07:06;14.70;71.10
51863;DHT22;37900;52.996;6.278;2023-03-01T06:09:32;14.70;70.90
51863;DHT22;37900;52.996;6.278;2023-03-01T06:11:58;14.70;70.80
51863;DHT22;37900;52.996;6.278;2023-03-01T06:14:23;14.70;70.70
51863;DHT22;37900;52.996;6.278;2023-03-01T06:16:49;14.70;70.70
51863;DHT22;37900;52.996;6.278;2023-03-01T06:19:15;14.70;70.60
51863;DHT22;37900;52.996;6.278;2023-03-01T06:21:41;14.70;70.60
51863;DHT22;37900;52.996;6.278;2023-03-01T06:24:06;14.70;70.50
51863;DHT22;37900;52.996;6.278;2023-03-01T06:26:33;14.70;70.50
51863;DHT22;37900;52.996;6.278;2023-03-01T06:28:59;14.70;70.60
51863;DHT22;37900;52.996;6.278;2023-03-01T06:31:25;14.80;70.70
51863;DHT22;37900;52.996;6.278;2023-03-01T06:33:50;14.70;70.70
51863;DHT22;37900;52.996;6.278;2023-03-01T06:36:16;14.70;70.80
51863;DHT22;37900;52.996;6.278;2023-03-01T06:38:44;14.70;70.80
51863;DHT22;37900;52.996;6.278;2023-03-01T06:41:10;14.70;70.90
51863;DHT22;37900;52.996;6.278;2023-03-01T06:43:35;14.70;70.80
51863;DHT22;37900;52.996;6.278;2023-03-01T06:46:04;14.60;70.70
51863;DHT22;37900;52.996;6.278;2023-03-01T06:48:30;14.60;70.50
51863;DHT22;37900;52.996;6.278;2023-03-01T06:50:58;14.70;70.40
51863;DHT22;37900;52.996;6.278;2023-03-01T06:53:29;14.60;70.30
51863;DHT22;37900;52.996;6.278;2023-03-01T06:55:56;14.60;70.20
51863;DHT22;37900;52.996;6.278;2023-03-01T06:58:22;14.60;70.20
51863;DHT22;37900;52.996;6.278;2023-03-01T07:00:47;14.70;70.10
51863;DHT22;37900;52.996;6.278;2023-03-01T07:03:13;14.70;70.10
51863;DHT22;37900;52.996;6.278;2023-03-01T07:05:39;14.70;70.00
51863;DHT22;37900;52.996;6.278;2023-03-01T07:08:04;14.70;70.10
51863;DHT22;37900;52.996;6.278;2023-03-01T07:10:30;14.80;70.20
51863;DHT22;37900;52.996;6.278;2023-03-01T07:12:59;14.70;70.20
51863;DHT22;37900;52.996;6.278;2023-03-01T07:15:26;14.70;70.30
51863;DHT22;37900;52.996;6.278;2023-03-01T07:17:52;14.70;70.40
51863;DHT22;37900;52.996;6.278;2023-03-01T07:20:19;14.70;70.40
51863;DHT22;37900;52.996;6.278;2023-03-01T07:22:48;14.80;70.60
51863;DHT22;37900;52.996;6.278;2023-03-01T07:25:13;14.70;70.50
51863;DHT22;37900;52.996;6.278;2023-03-01T07:27:39;14.60;70.40
51863;DHT22;37900;52.996;6.278;2023-03-01T07:30:06;14.60;70.20
51863;DHT22;37900;52.996;6.278;2023-03-01T07:32:32;14.60;70.20
51863;DHT22;37900;52.996;6.278;2023-03-01T07:34:57;14.70;70.10
51863;DHT22;37900;52.996;6.278;2023-03-01T07:37:23;14.70;70.10
51863;DHT22;37900;52.996;6.278;2023-03-01T07:39:49;14.70;70.00
51863;DHT22;37900;52.996;6.278;2023-03-01T07:42:14;14.70;70.00
51863;DHT22;37900;52.996;6.278;2023-03-01T07:44:40;14.70;69.90
51863;DHT22;37900;52.996;6.278;2023-03-01T07:47:06;14.70;70.00
51863;DHT22;37900;52.996;6.278;2023-03-01T07:49:32;14.70;70.00
51863;DHT22;37900;52.996;6.278;2023-03-01T07:51:57;14.70;70.10
51863;DHT22;37900;52.996;6.278;2023-03-01T07:54:23;14.80;70.20
51863;DHT22;37900;52.996;6.278;2023-03-01T07:56:49;14.70;70.20
51863;DHT22;37900;52.996;6.278;2023-03-01T07:59:15;14.70;70.30
51863;DHT22;37900;52.996;6.278;2023-03-01T08:01:41;14.70;70.40
51863;DHT22;37900;52.996;6.278;2023-03-01T08:04:08;14.70;70.50
51863;DHT22;37900;52.996;6.278;2023-03-01T08:06:35;14.70;70.50
51863;DHT22;37900;52.996;6.278;2023-03-01T08:09:01;14.70;70.60
51863;DHT22;37900;52.996;6.278;2023-03-01T08:11:27;14.60;70.50
51863;DHT22;37900;52.996;6.278;2023-03-01T08:13:56;14.60;70.40
51863;DHT22;37900;52.996;6.278;2023-03-01T08:16:23;14.70;70.50
51863;DHT22;37900;52.996;6.278;2023-03-01T08:18:48;14.70;70.40
51863;DHT22;37900;52.996;6.278;2023-03-01T08:21:16;14.70;70.40
51863;DHT22;37900;52.996;6.278;2023-03-01T08:23:43;14.70;70.50
51863;DHT22;37900;52.996;6.278;2023-03-01T08:28:38;14.80;70.60
51863;DHT22;37900;52.996;6.278;2023-03-01T08:31:14;14.80;70.60
51863;DHT22;37900;52.996;6.278;2023-03-01T08:33:40;14.80;70.70
51863;DHT22;37900;52.996;6.278;2023-03-01T08:36:06;14.80;70.80
51863;DHT22;37900;52.996;6.278;2023-03-01T08:38:33;14.70;70.80
51863;DHT22;37900;52.996;6.278;2023-03-01T08:41:01;14.80;70.90
51863;DHT22;37900;52.996;6.278;2023-03-01T08:43:27;14.70;71.00
51863;DHT22;37900;52.996;6.278;2023-03-01T08:45:52;14.70;71.20
51863;DHT22;37900;52.996;6.278;2023-03-01T08:48:18;14.70;71.50
51863;DHT22;37900;52.996;6.278;2023-03-01T08:50:44;14.70;71.70
51863;DHT22;37900;52.996;6.278;2023-03-01T08:53:10;14.70;71.90
51863;DHT22;37900;52.996;6.278;2023-03-01T08:55:35;14.70;72.00
51863;DHT22;37900;52.996;6.278;2023-03-01T08:58:01;14.70;72.10
51863;DHT22;37900;52.996;6.278;2023-03-01T09:00:27;14.70;72.10
51863;DHT22;37900;52.996;6.278;2023-03-01T09:02:53;14.80;72.30
51863;DHT22;37900;52.996;6.278;2023-03-01T09:05:19;14.80;72.30
51863;DHT22;37900;52.996;6.278;2023-03-01T09:07:44;14.80;72.40
51863;DHT22;37900;52.996;6.278;2023-03-01T09:10:10;14.80;72.30
51863;DHT22;37900;52.996;6.278;2023-03-01T09:12:36;14.80;72.50
51863;DHT22;37900;52.996;6.278;2023-03-01T09:15:02;14.80;72.70
51863;DHT22;37900;52.996;6.278;2023-03-01T09:17:28;14.80;72.80
51863;DHT22;37900;52.996;6.278;2023-03-01T09:19:53;14.80;72.90
51863;DHT22;37900;52.996;6.278;2023-03-01T09:22:20;14.80;73.10
51863;DHT22;37900;52.996;6.278;2023-03-01T09:24:45;14.80;73.20
51863;DHT22;37900;52.996;6.278;2023-03-01T09:27:11;14.80;73.40
51863;DHT22;37900;52.996;6.278;2023-03-01T09:29:38;14.70;73.40
51863;DHT22;37900;52.996;6.278;2023-03-01T09:32:06;14.80;73.60
51863;DHT22;37900;52.996;6.278;2023-03-01T09:34:33;14.80;73.70
51863;DHT22;37900;52.996;6.278;2023-03-01T09:37:19;14.80;73.90
51863;DHT22;37900;52.996;6.278;2023-03-01T09:39:45;14.80;74.50
51863;DHT22;37900;52.996;6.278;2023-03-01T09:42:12;14.80;74.00
51863;DHT22;37900;52.996;6.278;2023-03-01T09:47:35;14.80;73.90
51863;DHT22;37900;52.996;6.278;2023-03-01T09:52:43;14.90;73.90
51863;DHT22;37900;52.996;6.278;2023-03-01T09:55:26;14.90;73.90
51863;DHT22;37900;52.996;6.278;2023-03-01T09:58:06;14.90;74.10
51863;DHT22;37900;52.996;6.278;2023-03-01T10:00:47;14.90;74.30
51863;DHT22;37900;52.996;6.278;2023-03-01T10:03:27;14.80;74.30
51863;DHT22;37900;52.996;6.278;2023-03-01T10:08:47;14.80;74.70
51863;DHT22;37900;52.996;6.278;2023-03-01T10:11:25;14.80;74.70
51863;DHT22;37900;52.996;6.278;2023-03-01T10:16:53;14.80;75.00
51863;DHT22;37900;52.996;6.278;2023-03-01T10:19:29;14.80;75.10
51863;DHT22;37900;52.996;6.278;2023-03-01T10:22:01;14.80;75.20
51863;DHT22;37900;52.996;6.278;2023-03-01T10:24:32;14.80;75.30
51863;DHT22;37900;52.996;6.278;2023-03-01T10:27:05;14.80;75.30
51863;DHT22;37900;52.996;6.278;2023-03-01T10:32:25;14.90;75.40
51863;DHT22;37900;52.996;6.278;2023-03-01T10:34:51;14.90;75.40
51863;DHT22;37900;52.996;6.278;2023-03-01T10:37:19;14.90;75.30
51863;DHT22;37900;52.996;6.278;2023-03-01T10:40:03;14.90;75.30
51863;DHT22;37900;52.996;6.278;2023-03-01T10:42:38;14.90;75.40
51863;DHT22;37900;52.996;6.278;2023-03-01T10:48:19;14.90;75.70
51863;DHT22;37900;52.996;6.278;2023-03-01T10:50:51;14.90;75.80
51863;DHT22;37900;52.996;6.278;2023-03-01T10:53:33;14.90;75.90
51863;DHT22;37900;52.996;6.278;2023-03-01T10:56:11;14.90;75.90
51863;DHT22;37900;52.996;6.278;2023-03-01T10:59:02;14.90;76.00
51863;DHT22;37900;52.996;6.278;2023-03-01T11:01:33;14.90;76.20
51863;DHT22;37900;52.996;6.278;2023-03-01T11:04:12;14.90;76.50
51863;DHT22;37900;52.996;6.278;2023-03-01T11:06:42;14.90;76.70
51863;DHT22;37900;52.996;6.278;2023-03-01T11:09:23;14.90;76.90
51863;DHT22;37900;52.996;6.278;2023-03-01T11:11:54;14.90;77.20
51863;DHT22;37900;52.996;6.278;2023-03-01T11:14:30;14.90;77.30
51863;DHT22;37900;52.996;6.278;2023-03-01T11:17:25;15.00;77.40
51863;DHT22;37900;52.996;6.278;2023-03-01T11:22:36;15.00;77.40
51863;DHT22;37900;52.996;6.278;2023-03-01T11:25:02;15.10;77.40
51863;DHT22;37900;52.996;6.278;2023-03-01T11:27:32;15.00;77.40
51863;DHT22;37900;52.996;6.278;2023-03-01T11:35:32;15.10;77.90
51863;DHT22;37900;52.996;6.278;2023-03-01T11:40:44;15.10;78.00
51863;DHT22;37900;52.996;6.278;2023-03-01T11:57:01;15.30;78.10
51863;DHT22;37900;52.996;6.278;2023-03-01T11:59:40;15.30;78.10
51863;DHT22;37900;52.996;6.278;2023-03-01T12:08:15;15.50;78.00
51863;DHT22;37900;52.996;6.278;2023-03-01T12:16:46;15.50;77.80
51863;DHT22;37900;52.996;6.278;2023-03-01T12:28:00;15.60;77.60
51863;DHT22;37900;52.996;6.278;2023-03-01T12:38:42;15.70;77.50
51863;DHT22;37900;52.996;6.278;2023-03-01T12:44:13;15.80;77.40
51863;DHT22;37900;52.996;6.278;2023-03-01T12:49:41;15.80;77.30
51863;DHT22;37900;52.996;6.278;2023-03-01T12:52:20;15.80;77.30
51863;DHT22;37900;52.996;6.278;2023-03-01T12:54:49;15.90;77.20
51863;DHT22;37900;52.996;6.278;2023-03-01T12:57:31;15.90;77.20
51863;DHT22;37900;52.996;6.278;2023-03-01T13:00:27;15.90;77.20
51863;DHT22;37900;52.996;6.278;2023-03-01T13:03:15;15.90;77.10
51863;DHT22;37900;52.996;6.278;2023-03-01T13:08:41;15.90;77.20
51863;DHT22;37900;52.996;6.278;2023-03-01T13:11:24;15.90;77.20
51863;DHT22;37900;52.996;6.278;2023-03-01T13:13:50;15.80;77.20
51863;DHT22;37900;52.996;6.278;2023-03-01T13:21:39;15.80;77.20
51863;DHT22;37900;52.996;6.278;2023-03-01T13:24:22;15.80;77.20
51863;DHT22;37900;52.996;6.278;2023-03-01T13:29:52;15.80;77.10
51863;DHT22;37900;52.996;6.278;2023-03-01T13:32:26;15.80;77.00
51863;DHT22;37900;52.996;6.278;2023-03-01T13:37:29;15.80;76.80
51863;DHT22;37900;52.996;6.278;2023-03-01T13:42:50;15.90;76.80
51863;DHT22;37900;52.996;6.278;2023-03-01T13:45:19;15.90;76.70
51863;DHT22;37900;52.996;6.278;2023-03-01T13:47:47;15.90;76.70
51863;DHT22;37900;52.996;6.278;2023-03-01T13:50:23;15.90;76.60
51863;DHT22;37900;52.996;6.278;2023-03-01T13:53:01;15.90;76.60
51863;DHT22;37900;52.996;6.278;2023-03-01T13:55:37;16.00;76.60
51863;DHT22;37900;52.996;6.278;2023-03-01T13:58:24;16.00;76.50
51863;DHT22;37900;52.996;6.278;2023-03-01T14:01:06;16.00;76.50
51863;DHT22;37900;52.996;6.278;2023-03-01T14:03:39;16.00;76.60
51863;DHT22;37900;52.996;6.278;2023-03-01T14:06:13;16.00;76.50
51863;DHT22;37900;52.996;6.278;2023-03-01T14:08:39;15.90;76.50
51863;DHT22;37900;52.996;6.278;2023-03-01T14:16:58;15.80;76.50
51863;DHT22;37900;52.996;6.278;2023-03-01T14:19:28;15.80;76.40
51863;DHT22;37900;52.996;6.278;2023-03-01T14:24:54;15.80;76.20
51863;DHT22;37900;52.996;6.278;2023-03-01T14:27:20;15.80;76.20
51863;DHT22;37900;52.996;6.278;2023-03-01T14:30:01;15.80;76.20
51863;DHT22;37900;52.996;6.278;2023-03-01T14:32:29;15.80;76.10
51863;DHT22;37900;52.996;6.278;2023-03-01T14:34:57;15.90;76.10
51863;DHT22;37900;52.996;6.278;2023-03-01T14:39:52;15.90;76.00
51863;DHT22;37900;52.996;6.278;2023-03-01T14:42:20;15.90;75.90
51863;DHT22;37900;52.996;6.278;2023-03-01T14:44:51;15.90;75.90
51863;DHT22;37900;52.996;6.278;2023-03-01T14:47:31;15.90;75.90
51863;DHT22;37900;52.996;6.278;2023-03-01T14:50:27;16.00;75.80
51863;DHT22;37900;52.996;6.278;2023-03-01T14:53:02;16.00;75.70
51863;DHT22;37900;52.996;6.278;2023-03-01T14:55:33;16.00;75.70
51863;DHT22;37900;52.996;6.278;2023-03-01T14:58:04;16.00;75.70
51863;DHT22;37900;52.996;6.278;2023-03-01T15:00:32;15.90;75.60
51863;DHT22;37900;52.996;6.278;2023-03-01T15:03:34;15.90;75.70
51863;DHT22;37900;52.996;6.278;2023-03-01T15:06:02;15.90;75.70
51863;DHT22;37900;52.996;6.278;2023-03-01T15:08:29;15.90;75.80
51863;DHT22;37900;52.996;6.278;2023-03-01T15:13:40;15.80;75.50
51863;DHT22;37900;52.996;6.278;2023-03-01T15:16:07;15.80;75.50
51863;DHT22;37900;52.996;6.278;2023-03-01T15:18:34;15.80;75.50
51863;DHT22;37900;52.996;6.278;2023-03-01T15:21:29;15.90;75.50
51863;DHT22;37900;52.996;6.278;2023-03-01T15:26:32;15.90;75.40
51863;DHT22;37900;52.996;6.278;2023-03-01T15:28:59;15.90;75.30
51863;DHT22;37900;52.996;6.278;2023-03-01T15:31:28;15.90;75.30
51863;DHT22;37900;52.996;6.278;2023-03-01T15:34:21;15.90;75.20
51863;DHT22;37900;52.996;6.278;2023-03-01T15:36:47;15.90;75.50
51863;DHT22;37900;52.996;6.278;2023-03-01T15:39:36;15.90;75.70
51863;DHT22;37900;52.996;6.278;2023-03-01T15:42:38;16.00;76.00
51863;DHT22;37900;52.996;6.278;2023-03-01T15:47:56;15.90;76.20
51863;DHT22;37900;52.996;6.278;2023-03-01T15:50:29;15.90;76.30
51863;DHT22;37900;52.996;6.278;2023-03-01T15:52:56;15.90;76.90
51863;DHT22;37900;52.996;6.278;2023-03-01T15:55:31;15.90;76.60
51863;DHT22;37900;52.996;6.278;2023-03-01T15:58:16;15.90;76.60
51863;DHT22;37900;52.996;6.278;2023-03-01T16:00:43;15.80;76.60
51863;DHT22;37900;52.996;6.278;2023-03-01T16:03:11;15.90;76.70
51863;DHT22;37900;52.996;6.278;2023-03-01T16:05:37;15.90;76.80
51863;DHT22;37900;52.996;6.278;2023-03-01T16:08:05;15.90;76.80
51863;DHT22;37900;52.996;6.278;2023-03-01T16:10:31;15.90;76.90
51863;DHT22;37900;52.996;6.278;2023-03-01T16:12:58;16.00;77.20
51863;DHT22;37900;52.996;6.278;2023-03-01T16:15:32;16.00;77.10
51863;DHT22;37900;52.996;6.278;2023-03-01T16:18:00;16.00;77.70
51863;DHT22;37900;52.996;6.278;2023-03-01T16:20:26;16.00;77.20
51863;DHT22;37900;52.996;6.278;2023-03-01T16:22:52;16.00;77.20
51863;DHT22;37900;52.996;6.278;2023-03-01T16:25:19;16.00;77.20
51863;DHT22;37900;52.996;6.278;2023-03-01T16:27:47;16.00;77.10
51863;DHT22;37900;52.996;6.278;2023-03-01T16:30:15;16.00;77.10
51863;DHT22;37900;52.996;6.278;2023-03-01T16:32:43;16.00;77.20
51863;DHT22;37900;52.996;6.278;2023-03-01T16:35:10;16.00;77.10
51863;DHT22;37900;52.996;6.278;2023-03-01T16:37:37;15.90;77.20
51863;DHT22;37900;52.996;6.278;2023-03-01T16:40:04;15.90;77.30
51863;DHT22;37900;52.996;6.278;2023-03-01T16:42:36;15.90;77.40
51863;DHT22;37900;52.996;6.278;2023-03-01T16:45:03;15.90;77.40
51863;DHT22;37900;52.996;6.278;2023-03-01T16:47:29;15.90;77.40
51863;DHT22;37900;52.996;6.278;2023-03-01T16:49:55;15.90;77.60
51863;DHT22;37900;52.996;6.278;2023-03-01T16:52:22;16.00;77.70
51863;DHT22;37900;52.996;6.278;2023-03-01T16:54:48;15.90;77.60
51863;DHT22;37900;52.996;6.278;2023-03-01T16:57:14;16.00;77.70
51863;DHT22;37900;52.996;6.278;2023-03-01T16:59:40;16.00;77.70
51863;DHT22;37900;52.996;6.278;2023-03-01T17:02:08;16.00;77.70
51863;DHT22;37900;52.996;6.278;2023-03-01T17:04:36;16.00;77.80
51863;DHT22;37900;52.996;6.278;2023-03-01T17:07:02;16.00;77.80
51863;DHT22;37900;52.996;6.278;2023-03-01T17:09:28;16.00;77.70
51863;DHT22;37900;52.996;6.278;2023-03-01T17:11:53;16.00;77.70
51863;DHT22;37900;52.996;6.278;2023-03-01T17:14:20;16.00;77.60
51863;DHT22;37900;52.996;6.278;2023-03-01T17:16:45;16.00;77.70
51863;DHT22;37900;52.996;6.278;2023-03-01T17:19:11;16.00;77.70
51863;DHT22;37900;52.996;6.278;2023-03-01T17:21:43;16.00;77.80
51863;DHT22;37900;52.996;6.278;2023-03-01T17:24:09;16.00;77.80
51863;DHT22;37900;52.996;6.278;2023-03-01T17:26:35;15.90;77.60
51863;DHT22;37900;52.996;6.278;2023-03-01T17:29:01;15.90;77.50
51863;DHT22;37900;52.996;6.278;2023-03-01T17:31:28;15.90;77.40
51863;DHT22;37900;52.996;6.278;2023-03-01T17:33:53;15.90;77.30
51863;DHT22;37900;52.996;6.278;2023-03-01T17:36:19;15.90;77.20
51863;DHT22;37900;52.996;6.278;2023-03-01T17:38:45;15.90;77.10
51863;DHT22;37900;52.996;6.278;2023-03-01T17:41:11;16.00;77.10
51863;DHT22;37900;52.996;6.278;2023-03-01T17:43:37;15.90;77.00
51863;DHT22;37900;52.996;6.278;2023-03-01T17:46:03;15.90;76.90
51863;DHT22;37900;52.996;6.278;2023-03-01T17:48:29;16.00;76.80